Latest Weather Observations for Cape Moreton

IDQ60901

Issued at 11:31 pm EST Saturday 3 December 2016 (issued every 10 minutes, with the page automatically refreshed every 10 minutes)

About weather observations | Map of Brisbane area stations | Latest observations for Brisbane area | Other Formats
Station Details ID: 040043 Name: CAPE MORETON LIGHTHOUSE Lat: -27.03 Lon: 153.47 Height: 99.9 m
Data from the previous 72 hours. | See also: Recent months at Cape Moreton
Date/Time
EST
Temp
°C
App
Temp
°C
Dew
Point
°C
Rel
Hum
%
Delta-T
°C
Wind Press
QNH
hPa
Press
MSL
hPa
Rain since
9am
mm
Dir  Spd
km/h
Gust
km/h
Spd
kts
Gust
kts
03/11:30pm 23.4 23.6 23.4 100 0.0 N 28 35 15 19 1015.7 1015.2 6.0
03/11:00pm 23.4 23.2 23.4 100 0.0 N 30 41 16 22 1016.1 1015.6 6.0
03/10:30pm 23.4 21.5 23.4 100 0.0 NNE 39 46 21 25 1016.4 1015.9 6.0
03/10:00pm 23.4 21.5 23.4 100 0.0 NNE 39 52 21 28 1016.8 1016.3 6.0
03/09:30pm 23.4 20.7 23.4 100 0.0 NE 43 52 23 28 1016.5 1016.0 6.0
03/09:00pm 22.9 18.6 22.9 100 0.0 ENE 50 57 27 31 1015.9 1015.4 6.0
03/08:30pm 22.6 16.4 22.6 100 0.0 E 59 74 32 40 1015.6 1015.1 6.0
03/08:24pm 22.5 19.1 22.5 100 0.0 E 44 69 24 37 1016.0 1015.5 5.8
03/08:17pm 22.3 21.5 22.3 100 0.0 E 30 43 16 23 1017.8 1017.3 5.6
03/08:00pm 22.1 23.2 21.9 99 0.1 SE 19 24 10 13 1019.3 1018.8 5.2
03/07:30pm 23.0 23.7 22.3 96 0.5 SSW 22 35 12 19 1019.6 1019.1 3.8
03/07:00pm 24.3 28.2 22.6 90 1.1 E 6 15 3 8 1017.9 1017.4 0.0
03/06:56pm 24.3 28.6 22.6 90 1.1 NE 4 11 2 6 1017.2 1016.7 0.0
03/06:30pm 24.3 26.9 22.7 91 1.1 N 13 26 7 14 1015.2 1014.7 0.0
03/06:24pm 24.2 24.7 22.6 91 1.1 NNE 24 35 13 19 1014.4 1013.9 0.0
03/06:00pm 24.1 21.0 22.7 92 0.9 NNE 43 50 23 27 1012.3 1011.9 0.0
03/05:30pm 24.2 22.0 22.8 92 0.9 NNE 39 54 21 29 1011.7 1011.3 0.0
03/05:00pm 24.3 21.5 22.4 89 1.3 NNE 41 50 22 27 1011.4 1010.9 0.0
03/04:30pm 24.9 22.2 22.6 87 1.6 NNE 41 52 22 28 1011.1 1010.6 0.0
03/04:00pm 25.1 22.5 22.2 84 1.9 NNE 39 46 21 25 1011.3 1010.8 0.0
03/03:30pm 25.6 23.8 22.3 82 2.2 NNE 35 43 19 23 1011.8 1011.4 0.0
03/03:00pm 25.9 24.6 22.4 81 2.4 NNE 33 46 18 25 1011.9 1011.5 0.0
03/02:30pm 26.4 25.6 22.3 78 2.8 N 30 44 16 24 1012.5 1012.1 0.0
03/02:00pm 26.7 26.3 22.3 77 3.0 NNE 28 39 15 21 1013.2 1012.7 0.0
03/01:30pm 26.7 26.5 22.1 76 3.1 NNE 26 37 14 20 1013.7 1013.2 0.0
03/01:00pm 26.9 26.5 22.3 76 3.1 NNE 28 39 15 21 1014.0 1013.5 0.0
03/12:30pm 27.0 26.4 22.6 77 3.0 NNE 30 39 16 21 1014.4 1013.9 0.0
03/12:00pm 27.5 28.0 22.7 75 3.3 NNE 24 33 13 18 1014.8 1014.3 0.0
03/11:30am 27.2 28.2 22.8 77 3.0 N 22 35 12 19 1015.1 1014.6 0.0
03/11:00am 26.8 27.8 22.8 79 2.7 N 22 32 12 17 1015.4 1014.9 0.0
03/10:30am 25.9 26.6 23.0 84 2.0 N 24 33 13 18 1015.9 1015.4 0.0
03/10:00am 25.5 25.3 22.8 85 1.8 N 28 35 15 19 1015.7 1015.2 0.0
03/09:30am 26.1 27.2 23.6 86 1.7 N 24 30 13 16 1016.1 1015.6 0.0
03/09:00am 25.2 25.8 23.4 90 1.2 N 26 33 14 18 1016.0 1015.5 0.0
03/08:30am 24.8 25.7 23.4 92 1.0 N 24 32 13 17 1016.3 1015.8 0.0
03/08:00am 24.6 25.6 24.1 97 0.3 N 26 33 14 18 1015.9 1015.4 0.0
03/07:30am 24.0 24.4 23.8 99 0.1 N 28 32 15 17 1015.6 1015.1 0.0
03/07:00am 23.7 24.3 23.5 99 0.1 N 26 32 14 17 1015.4 1014.9 0.0
03/06:30am 23.7 23.9 23.5 99 0.1 N 28 33 15 18 1015.0 1014.5 0.0
03/06:00am 23.6 23.8 23.4 99 0.1 N 28 33 15 18 1014.6 1014.1 0.0
03/05:30am 23.6 23.4 23.4 99 0.1 N 30 35 16 19 1014.1 1013.6 0.0
03/05:00am 23.6 23.7 23.3 98 0.2 N 28 33 15 18 1013.7 1013.2 0.0
03/04:30am 23.6 24.1 23.3 98 0.2 N 26 35 14 19 1013.3 1012.8 0.0
03/04:00am 23.6 24.5 23.4 99 0.1 N 24 32 13 17 1013.0 1012.5 0.0
03/03:30am 23.5 24.0 23.3 99 0.1 N 26 35 14 19 1012.8 1012.3 0.0
03/03:00am 23.5 23.2 23.2 98 0.2 N 30 35 16 19 1012.8 1012.3 0.0
03/02:30am 23.5 22.8 23.2 98 0.2 N 32 39 17 21 1012.7 1012.2 0.0
03/02:00am 23.6 23.0 23.3 98 0.2 NNW 32 41 17 22 1012.8 1012.3 0.0
03/01:30am 23.4 23.1 23.2 99 0.1 N 30 35 16 19 1013.0 1012.5 0.0
03/01:00am 23.4 22.6 23.4 100 0.0 N 33 41 18 22 1013.1 1012.6 0.0
03/12:30am 23.4 22.6 23.4 100 0.0 N 33 43 18 23 1013.2 1012.7 0.0
03/12:00am 23.4 22.3 23.4 100 0.0 N 35 43 19 23 1013.7 1013.2 0.0
 
Date/Time
EST
Temp
°C
App
Temp
°C
Dew
Point
°C
Rel
Hum
%
Delta-T
°C
Wind Press
QNH
hPa
Press
MSL
hPa
Rain since
9am
mm
Dir  Spd
km/h
Gust
km/h
Spd
kts
Gust
kts
02/11:30pm 23.4 21.9 23.4 100 0.0 N 37 44 20 24 1013.4 1012.9 0.0
02/11:00pm 23.5 21.9 23.3 99 0.1 N 37 46 20 25 1013.6 1013.1 0.0
02/10:30pm 23.6 22.5 23.4 99 0.1 N 35 44 19 24 1013.8 1013.3 0.0
02/10:00pm 23.6 23.0 23.4 99 0.1 N 32 39 17 21 1013.8 1013.3 0.0
02/09:30pm 23.7 23.6 23.5 99 0.1 N 30 39 16 21 1013.7 1013.2 0.0
02/09:00pm 23.6 23.3 23.3 98 0.2 N 30 43 16 23 1013.2 1012.7 0.0
02/08:30pm 23.7 23.1 23.4 98 0.2 N 32 43 17 23 1012.9 1012.4 0.0
02/08:00pm 23.7 23.0 23.2 97 0.3 N 32 43 17 23 1012.3 1011.9 0.0
02/07:30pm 23.7 23.4 23.2 97 0.3 N 30 43 16 23 1012.1 1011.7 0.0
02/07:00pm 23.7 23.3 23.0 96 0.5 N 30 43 16 23 1011.8 1011.4 0.0
02/06:30pm 23.8 22.9 22.8 94 0.7 N 32 44 17 24 1011.4 1010.9 0.0
02/06:00pm 23.9 22.6 22.5 92 0.9 N 33 43 18 23 1010.9 1010.4 0.0
02/05:30pm 24.2 22.5 22.5 90 1.1 N 35 46 19 25 1010.6 1010.1 0.0
02/05:00pm 24.5 23.4 22.4 88 1.4 N 32 43 17 23 1010.4 1009.9 0.0
02/04:30pm 24.7 23.3 22.2 86 1.7 NNE 33 43 18 23 1010.3 1009.8 0.0
02/04:00pm 25.3 24.5 22.4 84 2.0 N 30 43 16 23 1010.3 1009.8 0.0
02/03:30pm 25.4 24.2 22.3 83 2.1 NNE 32 41 17 22 1010.3 1009.8 0.0
02/03:00pm 25.9 24.7 22.2 80 2.5 NNE 32 43 17 23 1010.5 1010.0 0.0
02/02:30pm 26.1 25.0 22.4 80 2.5 NNE 32 43 17 23 1010.7 1010.2 0.0
02/02:00pm 25.9 23.9 21.8 78 2.7 NNE 35 46 19 25 1010.9 1010.4 0.0
02/01:30pm 25.9 23.5 21.8 78 2.7 NNE 37 46 20 25 1010.9 1010.4 0.0
02/01:00pm 26.3 24.6 21.7 76 3.1 NNE 33 43 18 23 1011.3 1010.8 0.0
02/12:30pm 26.3 25.4 21.5 75 3.2 N 28 39 15 21 1011.7 1011.3 0.0
02/12:00pm 26.3 25.5 21.7 76 3.1 N 28 39 15 21 1011.9 1011.5 0.0
02/11:30am 26.3 25.7 21.9 77 3.0 N 28 41 15 22 1012.3 1011.9 0.0
02/11:00am 26.2 25.8 22.3 79 2.6 N 28 37 15 20 1012.4 1012.0 0.0
02/10:30am 26.1 26.4 22.2 79 2.6 N 24 33 13 18 1012.7 1012.2 0.0
02/10:00am 25.1 24.6 21.4 80 2.5 N 26 33 14 18 1013.1 1012.6 0.0
02/09:30am 25.0 24.8 22.1 84 1.9 N 26 33 14 18 1013.2 1012.7 0.0
02/09:00am 24.2 23.6 21.3 84 1.9 N 26 32 14 17 1013.4 1012.9 2.0
02/08:30am 24.9 25.9 22.2 85 1.8 NNW 20 28 11 15 1013.6 1013.1 2.0
02/08:00am 23.9 23.6 21.8 88 1.4 NNW 26 35 14 19 1013.4 1012.9 2.0
02/07:30am 23.4 22.6 21.7 90 1.1 NW 28 37 15 20 1013.3 1012.8 2.0
02/07:00am 23.8 22.7 21.7 88 1.4 NNW 30 43 16 23 1012.9 1012.4 2.0
02/06:30am 23.1 22.7 21.7 92 0.9 NW 26 37 14 20 1012.5 1012.1 2.0
02/06:00am 23.3 22.9 21.6 90 1.1 NNW 26 41 14 22 1012.2 1011.8 2.0
02/05:30am 23.1 20.5 21.5 91 1.1 N 37 46 20 25 1011.8 1011.4 2.0
02/05:00am 22.7 20.7 21.9 95 0.5 NNW 35 43 19 23 1011.8 1011.4 2.0
02/04:30am 22.6 22.4 22.1 97 0.3 NNW 26 37 14 20 1011.5 1011.0 2.0
02/04:00am 22.9 22.6 21.9 94 0.7 NNW 26 35 14 19 1011.2 1010.7 2.0
02/03:30am 22.8 21.1 21.3 91 1.0 NNW 32 43 17 23 1011.0 1010.5 2.0
02/03:00am 23.0 21.4 21.6 92 0.9 NNW 32 41 17 22 1011.0 1010.5 2.0
02/02:30am 22.9 20.7 21.4 91 1.0 N 35 43 19 23 1010.8 1010.3 2.0
02/02:00am 23.0 21.2 21.5 91 1.0 NNW 33 46 18 25 1010.8 1010.3 2.0
02/01:30am 23.0 21.8 21.6 92 0.9 NNW 30 41 16 22 1010.7 1010.2 2.0
02/01:00am 22.9 20.9 20.8 88 1.4 N 32 39 17 21 1010.8 1010.3 2.0
02/12:30am 22.8 21.5 20.7 88 1.4 NNW 28 37 15 20 1011.0 1010.5 2.0
02/12:00am 22.9 21.8 21.0 89 1.2 NNW 28 39 15 21 1011.3 1010.8 2.0
 
Date/Time
EST
Temp
°C
App
Temp
°C
Dew
Point
°C
Rel
Hum
%
Delta-T
°C
Wind Press
QNH
hPa
Press
MSL
hPa
Rain since
9am
mm
Dir  Spd
km/h
Gust
km/h
Spd
kts
Gust
kts
01/11:30pm 23.1 21.9 22.3 95 0.5 N 32 41 17 22 1011.7 1011.3 2.0
01/11:00pm 23.1 22.9 22.1 94 0.7 N 26 39 14 21 1011.9 1011.5 2.0
01/10:30pm 23.1 21.8 22.1 94 0.7 N 32 41 17 22 1011.9 1011.5 2.0
01/10:00pm 23.2 21.1 21.6 91 1.1 N 35 48 19 26 1011.8 1011.4 2.0
01/09:30pm 23.0 21.0 21.8 93 0.8 NNE 35 46 19 25 1011.7 1011.3 2.0
01/09:00pm 23.1 20.3 21.7 92 0.9 N 39 50 21 27 1011.6 1011.1 2.0
01/08:30pm 23.1 19.3 21.4 90 1.1 NNE 43 52 23 28 1011.3 1010.8 2.0
01/08:00pm 23.2 18.2 21.5 90 1.1 NNE 50 61 27 33 1010.5 1010.0 2.0
01/07:30pm 22.9 18.0 21.7 93 0.8 NNE 50 61 27 33 1010.7 1010.2 2.0
01/07:00pm 23.0 20.5 21.6 92 0.9 NNE 37 50 20 27 1012.2 1011.8 2.0
01/06:59pm 23.0 20.5 21.6 92 0.9 NNE 37 50 20 27 1012.2 1011.8 1.8
01/06:30pm 22.9 19.1 21.7 93 0.8 NNE 44 57 24 31 1010.2 1009.7 1.8
01/06:00pm 22.5 20.8 20.6 89 1.2 NE 30 54 16 29 1009.7 1009.2 1.8
01/05:57pm 22.7 22.5 20.6 88 1.4 NE 22 39 12 21 1010.8 1010.3 1.6
01/05:41pm 23.7 22.4 20.6 83 2.0 NE 28 54 15 29 1011.6 1011.1 0.0
01/05:37pm 23.7 19.9 20.6 83 2.0 NE 41 57 22 31 1009.6 1009.1 0.0
01/05:30pm 23.6 18.4 20.5 83 2.0 NNE 48 59 26 32 1007.6 1007.1 0.0
01/05:00pm 23.7 18.8 20.2 81 2.3 NNE 46 61 25 33 1007.6 1007.1 0.0
01/04:30pm 23.7 18.8 20.2 81 2.3 NNE 46 61 25 33 1006.8 1006.3 0.0
01/04:00pm 23.9 19.8 20.0 79 2.5 NNE 41 52 22 28 1007.6 1007.1 0.0
01/03:30pm 23.7 19.3 20.2 81 2.3 NNE 43 54 23 29 1007.7 1007.2 0.0
01/03:00pm 24.1 20.6 19.6 76 2.9 NNE 37 44 20 24 1008.0 1007.5 0.0
01/02:30pm 25.1 22.0 19.7 72 3.5 NNE 35 46 19 25 1008.6 1008.1 0.0
01/02:00pm 25.6 23.2 19.9 70 3.7 NNE 32 41 17 22 1009.2 1008.7 0.0
01/01:30pm 25.8 23.0 19.4 67 4.1 NNE 33 43 18 23 1009.6 1009.1 0.0
01/01:00pm 25.9 22.7 19.5 68 4.1 NNE 35 44 19 24 1010.1 1009.6 0.0
01/12:30pm 25.6 22.8 19.0 67 4.2 NNE 32 43 17 23 1010.3 1009.8 0.0
01/12:00pm 26.3 24.4 19.4 66 4.5 NNE 28 39 15 21 1010.7 1010.2 0.0
01/11:30am 26.4 24.7 19.8 67 4.3 NNE 28 35 15 19 1011.5 1011.0 0.0
01/11:00am 25.4 23.9 18.6 66 4.3 N 24 33 13 18 1012.2 1011.8 0.0
01/10:30am 25.4 23.9 19.5 70 3.8 NNW 26 33 14 18 1012.8 1012.3 0.0
01/10:00am 24.3 23.2 19.4 74 3.2 NW 24 30 13 16 1013.3 1012.8 0.0
01/09:30am 24.5 24.3 19.8 75 3.0 NW 20 28 11 15 1013.1 1012.6 0.0
01/09:00am 24.0 23.4 19.7 77 2.8 NW 22 28 12 15 1013.0 1012.5 0.6
01/08:30am 24.0 24.1 19.9 78 2.7 NW 19 26 10 14 1012.8 1012.3 0.6
01/08:00am 23.5 23.8 19.6 79 2.5 NW 17 22 9 12 1012.7 1012.2 0.6
01/07:30am 23.6 24.4 19.9 80 2.4 NNW 15 20 8 11 1012.2 1011.8 0.4
01/07:00am 23.3 25.0 20.1 82 2.1 WNW 11 15 6 8 1012.4 1012.0 0.4
01/06:30am 22.6 24.1 19.8 84 1.8 WNW 11 17 6 9 1012.4 1012.0 0.4
01/06:00am 21.7 22.6 20.0 90 1.1 WNW 15 20 8 11 1012.2 1011.8 0.4
01/05:30am 22.1 22.4 19.6 86 1.6 WNW 17 22 9 12 1011.9 1011.5 0.4
01/05:00am 22.3 21.2 18.7 80 2.3 N 22 28 12 15 1011.6 1011.2 0.4
01/04:30am 22.2 21.7 18.6 80 2.3 N 19 24 10 13 1011.4 1011.0 0.4
01/04:00am 22.2 21.7 18.6 80 2.3 N 19 26 10 14 1011.1 1010.7 0.4
01/03:30am 22.1 21.6 18.7 81 2.1 N 19 26 10 14 1011.0 1010.6 0.4
01/03:00am 22.2 22.0 18.6 80 2.3 N 17 22 9 12 1011.1 1010.7 0.4
01/02:30am 22.2 21.6 18.8 81 2.2 N 20 26 11 14 1011.0 1010.6 0.4
01/02:00am 22.3 21.9 18.9 81 2.2 NNE 19 22 10 12 1011.4 1011.0 0.4
01/01:30am 22.3 22.6 18.7 80 2.3 NNE 15 19 8 10 1011.8 1011.4 0.4
01/01:00am 22.4 22.9 19.2 82 2.0 N 15 19 8 10 1011.7 1011.3 0.4
01/12:30am 22.4 22.0 19.0 81 2.2 N 19 24 10 13 1011.6 1011.2 0.4
01/12:00am 22.5 22.0 19.1 81 2.2 N 20 28 11 15 1011.6 1011.2 0.4

Latest Capital City Observations: Canberra | Sydney | Melbourne | Brisbane | Adelaide | Perth | Hobart | Darwin

Other Formats:

Comma delimited format used in spreadsheet applications
http://www.bom.gov.au/fwo/IDQ60901/IDQ60901.94594.axf

JavaScript Object Notation format (JSON) in row-major order
http://www.bom.gov.au/fwo/IDQ60901/IDQ60901.94594.json